TimeCDT,TemperatureF,Dew PointF,Humidity,Sea Level PressureIn,VisibilityMPH,Wind Direction,Wind SpeedMPH,Gust SpeedMPH,PrecipitationIn,Events,Conditions,WindDirDegrees,DateUTC
12:15 AM,41.0,39.2,93,30.14,0.8,Calm,Calm,-,N/A,,Mist,0,2012-10-09 05:15:00
12:55 AM,41.0,39.2,93,30.13,0.8,Calm,Calm,-,N/A,,Mist,0,2012-10-09 05:55:00
1:15 AM,41.0,39.2,93,30.13,1.5,Calm,Calm,-,N/A,,Mist,0,2012-10-09 06:15:00
1:35 AM,41.0,37.4,87,30.14,7.0,Calm,Calm,-,N/A,,Clear,0,2012-10-09 06:35:00
1:55 AM,39.2,37.4,93,30.14,10.0,Calm,Calm,-,N/A,,Clear,0,2012-10-09 06:55:00
2:35 AM,39.2,37.4,93,30.13,1.2,Calm,Calm,-,N/A,,Mist,0,2012-10-09 07:35:00
2:55 AM,39.2,37.4,93,30.13,10.0,Calm,Calm,-,N/A,,Clear,0,2012-10-09 07:55:00
3:15 AM,39.2,37.4,93,30.13,5.0,Calm,Calm,-,N/A,,Clear,0,2012-10-09 08:15:00
3:35 AM,39.2,37.4,93,30.13,1.2,Calm,Calm,-,N/A,,Mist,0,2012-10-09 08:35:00
3:55 AM,39.2,37.4,93,30.13,5.0,Calm,Calm,-,N/A,,Clear,0,2012-10-09 08:55:00
4:15 AM,39.2,37.4,93,30.13,5.0,Calm,Calm,-,N/A,,Clear,0,2012-10-09 09:15:00
4:35 AM,39.2,37.4,93,30.12,10.0,Calm,Calm,-,N/A,,Clear,0,2012-10-09 09:35:00
4:55 AM,39.2,37.4,93,30.13,10.0,Calm,Calm,-,N/A,,Clear,0,2012-10-09 09:55:00
5:15 AM,39.2,37.4,93,30.13,10.0,Calm,Calm,-,N/A,,Clear,0,2012-10-09 10:15:00
5:35 AM,39.2,37.4,93,30.13,10.0,Calm,Calm,-,N/A,,Clear,0,2012-10-09 10:35:00
5:55 AM,37.4,35.6,93,30.13,10.0,Calm,Calm,-,N/A,,Clear,0,2012-10-09 10:55:00
6:15 AM,37.4,35.6,93,30.14,3.0,Calm,Calm,-,N/A,,Clear,0,2012-10-09 11:15:00
6:35 AM,37.4,35.6,93,30.14,10.0,Calm,Calm,-,N/A,,Clear,0,2012-10-09 11:35:00
6:55 AM,37.4,35.6,93,30.14,10.0,Calm,Calm,-,N/A,,Clear,0,2012-10-09 11:55:00
7:15 AM,39.2,35.6,87,30.14,10.0,Calm,Calm,-,N/A,,Clear,0,2012-10-09 12:15:00
7:35 AM,37.4,35.6,93,30.14,10.0,Calm,Calm,-,N/A,,Clear,0,2012-10-09 12:35:00
7:55 AM,39.2,37.4,93,30.14,10.0,Calm,Calm,-,N/A,,Clear,0,2012-10-09 12:55:00
8:15 AM,41.0,39.2,93,30.15,10.0,Calm,Calm,-,N/A,,Clear,0,2012-10-09 13:15:00
8:35 AM,46.4,44.6,93,30.15,7.0,Calm,Calm,-,N/A,,Clear,0,2012-10-09 13:35:00
8:55 AM,50.0,48.2,94,30.15,10.0,South,4.6,-,N/A,,Clear,190,2012-10-09 13:55:00
9:15 AM,51.8,48.2,88,30.15,10.0,SSW,4.6,-,N/A,,Clear,200,2012-10-09 14:15:00
9:35 AM,53.6,50.0,88,30.15,10.0,South,5.8,-,N/A,,Clear,180,2012-10-09 14:35:00
9:55 AM,55.4,50.0,82,30.15,10.0,SW,6.9,-,N/A,,Clear,230,2012-10-09 14:55:00
10:15 AM,57.2,48.2,72,30.15,10.0,SSW,6.9,-,N/A,,Clear,210,2012-10-09 15:15:00
10:35 AM,59.0,46.4,63,30.15,10.0,WSW,8.1,-,N/A,,Clear,240,2012-10-09 15:35:00
10:55 AM,60.8,46.4,59,30.14,10.0,South,10.4,-,N/A,,Clear,190,2012-10-09 15:55:00
11:15 AM,60.8,44.6,55,30.13,10.0,SSW,10.4,16.1,N/A,,Clear,210,2012-10-09 16:15:00
11:35 AM,62.6,42.8,48,30.12,10.0,SW,12.7,17.3,N/A,,Scattered Clouds,220,2012-10-09 16:35:00
11:55 AM,62.6,42.8,48,30.11,10.0,South,11.5,-,N/A,,Scattered Clouds,170,2012-10-09 16:55:00
12:15 PM,64.4,42.8,45,30.10,10.0,South,13.8,17.3,N/A,,Scattered Clouds,180,2012-10-09 17:15:00
12:35 PM,64.4,42.8,45,30.09,10.0,SSW,11.5,-,N/A,,Clear,210,2012-10-09 17:35:00
12:55 PM,64.4,42.8,45,30.08,10.0,SW,6.9,-,N/A,,Scattered Clouds,220,2012-10-09 17:55:00
1:15 PM,64.4,42.8,45,30.07,10.0,SSW,12.7,18.4,N/A,,Scattered Clouds,210,2012-10-09 18:15:00
1:35 PM,66.2,42.8,43,30.06,10.0,SSW,11.5,19.6,N/A,,Clear,210,2012-10-09 18:35:00
1:55 PM,66.2,42.8,43,30.05,10.0,SSW,10.4,18.4,N/A,,Clear,200,2012-10-09 18:55:00
2:15 PM,66.2,44.6,46,30.04,10.0,SSW,11.5,-,N/A,,Clear,210,2012-10-09 19:15:00
2:35 PM,66.2,42.8,43,30.03,10.0,South,6.9,-,N/A,,Clear,190,2012-10-09 19:35:00
2:55 PM,66.2,42.8,43,30.03,10.0,South,8.1,18.4,N/A,,Clear,180,2012-10-09 19:55:00
3:15 PM,66.2,42.8,43,30.01,10.0,SSW,8.1,-,N/A,,Clear,200,2012-10-09 20:15:00
3:35 PM,66.2,42.8,43,30.01,10.0,South,10.4,-,N/A,,Clear,190,2012-10-09 20:35:00
3:55 PM,66.2,42.8,43,30.00,10.0,SSW,9.2,-,N/A,,Clear,200,2012-10-09 20:55:00
4:15 PM,66.2,42.8,43,30.00,10.0,South,8.1,-,N/A,,Clear,190,2012-10-09 21:15:00
4:35 PM,66.2,42.8,43,30.00,10.0,SSW,9.2,-,N/A,,Clear,200,2012-10-09 21:35:00
4:55 PM,66.2,42.8,43,29.99,10.0,SSW,8.1,-,N/A,,Clear,210,2012-10-09 21:55:00
5:15 PM,66.2,42.8,43,29.99,10.0,South,8.1,-,N/A,,Clear,190,2012-10-09 22:15:00
5:35 PM,64.4,42.8,45,29.99,10.0,SSW,6.9,-,N/A,,Clear,200,2012-10-09 22:35:00
5:55 PM,62.6,42.8,48,29.99,10.0,SSW,6.9,-,N/A,,Clear,200,2012-10-09 22:55:00
6:15 PM,60.8,42.8,52,29.99,10.0,SSW,5.8,-,N/A,,Clear,200,2012-10-09 23:15:00
6:35 PM,60.8,42.8,52,29.98,10.0,SSW,5.8,-,N/A,,Clear,200,2012-10-09 23:35:00
6:55 PM,59.0,44.6,59,29.98,10.0,South,5.8,-,N/A,,Clear,190,2012-10-09 23:55:00
7:15 PM,59.0,44.6,59,29.98,10.0,South,4.6,-,N/A,,Clear,190,2012-10-10 00:15:00
7:35 PM,57.2,44.6,63,29.99,10.0,South,4.6,-,N/A,,Clear,190,2012-10-10 00:35:00
7:55 PM,57.2,44.6,63,29.99,10.0,South,4.6,-,N/A,,Clear,190,2012-10-10 00:55:00
8:15 PM,57.2,44.6,63,30.00,10.0,South,4.6,-,N/A,,Clear,190,2012-10-10 01:15:00
8:35 PM,57.2,44.6,63,30.00,10.0,South,3.5,-,N/A,,Clear,190,2012-10-10 01:35:00
8:55 PM,57.2,44.6,63,30.00,10.0,South,4.6,-,N/A,,Clear,180,2012-10-10 01:55:00
9:15 PM,57.2,44.6,63,30.00,10.0,South,4.6,-,N/A,,Clear,170,2012-10-10 02:15:00
9:35 PM,55.4,44.6,67,30.00,10.0,South,3.5,-,N/A,,Clear,190,2012-10-10 02:35:00
9:55 PM,51.8,44.6,76,30.01,10.0,SSW,4.6,-,N/A,,Clear,200,2012-10-10 02:55:00
10:15 PM,53.6,44.6,72,30.00,10.0,South,4.6,-,N/A,,Clear,190,2012-10-10 03:15:00
10:35 PM,55.4,46.4,72,30.02,10.0,SSW,3.5,-,N/A,,Mostly Cloudy,200,2012-10-10 03:35:00
10:55 PM,57.2,46.4,67,30.01,10.0,South,3.5,-,N/A,,Overcast,180,2012-10-10 03:55:00
11:15 PM,57.2,46.4,67,30.01,10.0,Calm,Calm,-,N/A,,Overcast,0,2012-10-10 04:15:00
11:35 PM,57.2,48.2,72,30.02,10.0,Calm,Calm,-,N/A,,Overcast,0,2012-10-10 04:35:00
11:55 PM,59.0,48.2,67,30.02,10.0,SW,5.8,-,N/A,,Overcast,220,2012-10-10 04:55:00